aviador You're here:

YBHM Decoded Metar

HAMILTON ISLAND in AUSTRALIA
Report Time2017-05-30 01:00:00
UTC Time2017-05-30 01:29:49
Flight Rules mvfr MVFR
Wind150° at 19 kt
W.Decomp.*RWY 14: 19.0 kt HW 0.7 kt RCW
W.Rank150° ranks 3
Current wind is above 150° avg. (16.2)
Visibility9999 m
Phenomena:N/A
Clouds:Scattered 019 Hf
Broken 025 Hf
Overcast 030 Hf
Expected CloudBase > 800 ft AGL from Temp-Dew spread
Ceiling2,500 ft
Temp23°C (ISA +8)
Dew Point21°C (89% RH)
AAT20.4°C
QNH1019 hPa
Density Alt1,076 ft
Elevation16 ft
Report Wrong Elevation
Raw Report
METAR YBHM 300100Z AUTO 15019KT 9999 // SCT019 BKN025 OVC030 23/21 Q1019=

Extra information for YBHM:More info

Metar Taf Metar & Taf Last 4 Metars F.Rules Stats Wind Profile Meteogram Temp Stats Airport Information Weather charts Add Link Nearby VenuesMetar ALERT Operation Metar Decoded Social comments